Saxaren — SKHW — position and weather

sailwx.info

Track history (hours):
 
Tides and Currents Weather Stations Pressure Air Temp Water Temp Dewpoint Dewpoint Depression Visibility Wind Speed Wind Dir Waves Ship Positions

Saxaren

Last reported at 2017-May-28 04:26 UTC. Time now 2017-May-28 04:38 UTC.
Position N 59°17' E 018°55'.

Length 37 m; draft 3 m.

Type: Passenger vessel. MMSI: 265512110.

Date/timePositionNaut miles runAvg speedWind from/ knotsBaromVisibWave heightAir tempDewpointWater temp
2017-May-28 04:26N 59°17' E 018°55'0 0.0
2017-May-28 03:55N 59°17' E 018°55'0 0.0
2017-May-27 19:21N 59°17' E 018°55'0 0.0
2017-May-27 18:22N 59°17' E 018°55'0 0.0
2017-May-27 17:56N 59°17' E 018°55'0 0.0
2017-May-27 16:49N 59°17' E 018°55'0 0.0
2017-May-27 14:07N 59°17' E 018°55'7 0.4
2017-May-26 18:05N 59°22' E 018°44'1 2.6
2017-May-26 17:50N 59°23' E 018°44'3 6.9
2017-May-26 17:20N 59°24' E 018°50'410.9
2017-May-26 17:00N 59°27' E 018°55'2 1.3
2017-May-26 15:03N 59°26' E 018°50'118.8
2017-May-26 15:01N 59°27' E 018°52'3 4.3
2017-May-26 14:24N 59°24' E 018°53'12 6.7
2017-May-26 12:35N 59°26' E 018°30'217.7
2017-May-26 12:29N 59°26' E 018°26'4 7.5
2017-May-26 12:00N 59°24' E 018°21'5 9.3
2017-May-26 11:30N 59°21' E 018°15'510.6
2017-May-26 11:00N 59°20' E 018°04'0 0.0
2017-May-26 10:30N 59°20' E 018°04'0 0.0
2017-May-26 10:00N 59°20' E 018°04'0 0.0
2017-May-26 09:31N 59°20' E 018°04'2 3.7
2017-May-26 09:00N 59°19' E 018°08'510.6
2017-May-26 08:31N 59°22' E 018°17'4 7.2
2017-May-26 08:00N 59°25' E 018°21'4 8.8
2017-May-26 07:30N 59°28' E 018°26'1 2.9
2017-May-26 07:00N 59°28' E 018°29'2 3.1
2017-May-26 06:28N 59°26' E 018°26'6 6.3
2017-May-26 05:27N 59°26' E 018°39'3 4.8
2017-May-26 04:50N 59°28' E 018°44'3 9.9
2017-May-26 04:30N 59°29' E 018°50'1 2.2
2017-May-26 03:59N 59°30' E 018°51'0 0.0
2017-May-26 03:30N 59°30' E 018°51'0 0.0
2017-May-26 03:00N 59°30' E 018°51'0 0.0
2017-May-26 02:30N 59°30' E 018°51'0 0.0
2017-May-26 02:01N 59°30' E 018°51'0 0.0
2017-May-26 01:30N 59°30' E 018°51'0 0.0
2017-May-26 01:00N 59°30' E 018°51'0 0.0
2017-May-26 00:26N 59°30' E 018°51'0 0.0
2017-May-25 23:59N 59°30' E 018°51'0 0.0
2017-May-25 23:31N 59°30' E 018°51'0 0.0
2017-May-25 23:00N 59°30' E 018°51'0 0.0
2017-May-25 22:31N 59°30' E 018°51'0 0.0
2017-May-25 22:00N 59°30' E 018°51'0 0.0
2017-May-25 21:30N 59°30' E 018°51'0 0.0
2017-May-25 20:57N 59°30' E 018°51'0 0.0
2017-May-25 19:46N 59°30' E 018°51'1 2.5
2017-May-25 19:30N 59°30' E 018°50'4 6.9
2017-May-25 18:59N 59°27' E 018°44'8 4.3
2017-May-25 17:02N 59°25' E 018°28'0 1.8
2017-May-25 17:00N 59°25' E 018°28'4 7.6
2017-May-25 16:30N 59°24' E 018°21'1 2.0
2017-May-25 16:00N 59°25' E 018°21'4 8.7
2017-May-25 15:31N 59°27' E 018°29'6 3.9
2017-May-25 13:53N 59°25' E 018°41'3 1.2
2017-May-25 10:52N 59°27' E 018°46'512.9
2017-May-25 10:31N 59°27' E 018°55'0 0.3
2017-May-25 10:01N 59°27' E 018°55'0 0.0
2017-May-25 09:30N 59°27' E 018°55'0 0.0
2017-May-25 09:00N 59°27' E 018°55'0 0.0
2017-May-25 08:30N 59°27' E 018°55'0 0.0
2017-May-25 08:00N 59°27' E 018°55'0 0.0
2017-May-25 07:30N 59°27' E 018°55'0 0.0
2017-May-25 07:00N 59°27' E 018°55'0 0.0
2017-May-25 06:30N 59°27' E 018°55'0 0.0
2017-May-25 06:00N 59°27' E 018°55'0 0.0
2017-May-25 05:31N 59°27' E 018°55'0 0.0
2017-May-25 05:00N 59°27' E 018°55'0 0.0
2017-May-25 04:28N 59°27' E 018°55'0 0.0
2017-May-25 03:59N 59°27' E 018°55'0 0.0
2017-May-25 03:30N 59°27' E 018°55'0 0.0
2017-May-25 02:54N 59°27' E 018°55'0 0.0
2017-May-25 02:29N 59°27' E 018°55'0 0.0
2017-May-25 01:55N 59°27' E 018°55'0 0.0
2017-May-25 01:26N 59°27' E 018°55'0 0.0
2017-May-25 00:57N 59°27' E 018°55'0 0.0
2017-May-25 00:30N 59°27' E 018°55'0 0.0
2017-May-24 23:58N 59°27' E 018°55'0 0.0
2017-May-24 23:28N 59°27' E 018°55'0 0.0
2017-May-24 22:59N 59°27' E 018°55'0 0.0
2017-May-24 22:29N 59°27' E 018°55'0 0.0
2017-May-24 21:59N 59°27' E 018°55'0 0.0
2017-May-24 21:28N 59°27' E 018°55'0 0.0
2017-May-24 21:00N 59°27' E 018°55'0 0.0
2017-May-24 20:30N 59°27' E 018°55'0 0.0
2017-May-24 20:00N 59°27' E 018°55'1 1.4
2017-May-24 19:31N 59°27' E 018°54'5 9.5
2017-May-24 19:01N 59°30' E 018°46'5 8.0
2017-May-24 18:26N 59°28' E 018°38'5 7.8
2017-May-24 17:47N 59°26' E 018°29'413.4
2017-May-24 17:30N 59°25' E 018°21'3 6.3
2017-May-24 17:00N 59°23' E 018°18'612.1
2017-May-24 16:30N 59°19' E 018°09'2 4.7
2017-May-24 16:00N 59°20' E 018°05'0 0.2
2017-May-24 15:31N 59°20' E 018°05'510.7
2017-May-24 15:01N 59°21' E 018°15'5 9.2
2017-May-24 14:31N 59°24' E 018°21'17 6.2
2017-May-24 11:46N 59°25' E 018°55'2 6.1
2017-May-24 11:30N 59°27' E 018°55'0 0.9
2017-May-24 11:01N 59°26' E 018°56'4 6.7
2017-May-24 10:23N 59°22' E 018°53'3 6.2
2017-May-24 09:51N 59°24' E 018°47'9 6.1
2017-May-24 08:26N 59°25' E 018°30'510.7
2017-May-24 08:00N 59°25' E 018°21'3 6.4
2017-May-24 07:30N 59°22' E 018°18'610.9
2017-May-24 07:00N 59°19' E 018°08'2 4.3
2017-May-24 06:30N 59°20' E 018°04'0 0.3
2017-May-24 06:00N 59°20' E 018°05'0 0.0
2017-May-24 05:30N 59°20' E 018°05'0 0.0
2017-May-24 05:00N 59°20' E 018°05'0 0.0
2017-May-24 04:30N 59°20' E 018°05'0 0.0
2017-May-24 04:00N 59°20' E 018°05'0 0.0
2017-May-24 03:30N 59°20' E 018°05'0 0.0
2017-May-24 03:00N 59°20' E 018°05'0 0.0
2017-May-24 02:30N 59°20' E 018°05'0 0.0
2017-May-24 02:00N 59°20' E 018°05'0 0.0
2017-May-24 01:30N 59°20' E 018°05'0 0.0
2017-May-24 01:00N 59°20' E 018°05'0 0.0
2017-May-24 00:30N 59°20' E 018°05'0 0.0
2017-May-24 00:00N 59°20' E 018°05'0 0.0
2017-May-23 23:30N 59°20' E 018°05'0 0.0
2017-May-23 23:00N 59°20' E 018°05'0 0.0
2017-May-23 22:30N 59°20' E 018°05'0 0.0
2017-May-23 22:00N 59°20' E 018°05'0 0.0
2017-May-23 21:30N 59°20' E 018°05'0 0.0
2017-May-23 21:00N 59°20' E 018°05'0 0.0
2017-May-23 20:30N 59°20' E 018°05'0 0.0
2017-May-23 20:00N 59°20' E 018°05'0 0.0
2017-May-23 19:30N 59°20' E 018°05'0 0.0
2017-May-23 19:00N 59°20' E 018°05'0 0.0
2017-May-23 18:30N 59°20' E 018°05'0 0.0
2017-May-23 18:00N 59°20' E 018°05'0 0.0
2017-May-23 17:30N 59°20' E 018°05'0 0.0
2017-May-23 17:00N 59°20' E 018°05'0 0.0
2017-May-23 16:30N 59°20' E 018°05'0 0.0
2017-May-23 16:00N 59°20' E 018°05'0 0.0
2017-May-23 15:30N 59°20' E 018°05'0 0.0
2017-May-23 15:00N 59°20' E 018°05'0 0.0
2017-May-23 14:30N 59°20' E 018°05'0 0.0
2017-May-23 13:30N 59°20' E 018°05'0 0.0
2017-May-23 13:00N 59°20' E 018°05'0 0.0
2017-May-23 12:30N 59°20' E 018°05'0 0.0
2017-May-23 12:00N 59°20' E 018°05'0 0.0
2017-May-23 11:30N 59°20' E 018°05'0 0.0
2017-May-23 11:00N 59°20' E 018°05'0 0.0
2017-May-23 10:30N 59°20' E 018°05'0 0.0
2017-May-23 10:00N 59°20' E 018°05'0 0.0
2017-May-23 09:30N 59°20' E 018°05'0 0.0
2017-May-23 09:00N 59°20' E 018°05'0 0.0
2017-May-23 08:30N 59°20' E 018°05'0 0.0
2017-May-23 07:59N 59°20' E 018°05'0 0.0
2017-May-23 07:30N 59°20' E 018°05'0 0.0
2017-May-23 06:59N 59°20' E 018°05'0 0.0
2017-May-23 06:30N 59°20' E 018°05'0 0.0
2017-May-23 06:00N 59°20' E 018°05'0 0.0
2017-May-23 05:30N 59°20' E 018°05'0 0.0
2017-May-23 05:00N 59°20' E 018°05'0 0.0
2017-May-23 04:30N 59°20' E 018°05'0 0.0
2017-May-23 04:00N 59°20' E 018°05'0 0.0
2017-May-23 03:30N 59°20' E 018°05'0 0.0
2017-May-23 03:00N 59°20' E 018°05'0 0.0
2017-May-23 02:30N 59°20' E 018°05'0 0.0
2017-May-23 02:00N 59°20' E 018°05'0 0.0
2017-May-23 01:30N 59°20' E 018°05'0 0.0
2017-May-23 01:00N 59°20' E 018°05'0 0.0
2017-May-23 00:30N 59°20' E 018°05'0 0.0
2017-May-23 00:00N 59°20' E 018°05'0 0.0
2017-May-22 23:30N 59°20' E 018°05'0 0.0
2017-May-22 23:00N 59°20' E 018°05'0 0.0
2017-May-22 22:30N 59°20' E 018°05'0 0.0
2017-May-22 22:00N 59°20' E 018°05'0 0.0
2017-May-22 21:30N 59°20' E 018°05'0 0.0
2017-May-22 21:00N 59°20' E 018°05'0 0.0
2017-May-22 20:30N 59°20' E 018°05'0 0.0
2017-May-22 20:00N 59°20' E 018°05'0 0.0
2017-May-22 19:30N 59°20' E 018°05'0 0.0
2017-May-22 19:00N 59°20' E 018°05'0 0.0
2017-May-22 18:30N 59°20' E 018°05'0 0.0
2017-May-22 18:00N 59°20' E 018°05'0 0.0
2017-May-22 17:30N 59°20' E 018°05'0 0.0
2017-May-22 17:00N 59°20' E 018°05'0 0.0
2017-May-22 16:30N 59°20' E 018°05'0 0.0
2017-May-22 16:00N 59°20' E 018°05'0 0.0
2017-May-22 15:30N 59°20' E 018°05'0 0.0
2017-May-22 15:00N 59°20' E 018°05'0 0.0
2017-May-22 14:00N 59°20' E 018°05'0 0.0
2017-May-22 13:30N 59°20' E 018°05'0 0.0
2017-May-22 13:00N 59°20' E 018°05'0 0.0
2017-May-22 12:30N 59°20' E 018°05'0 0.0
2017-May-22 12:00N 59°20' E 018°05'0 0.0
2017-May-22 11:30N 59°20' E 018°05'0 0.0
2017-May-22 11:00N 59°20' E 018°05'0 0.0
2017-May-22 10:30N 59°20' E 018°05'0 0.0
2017-May-22 10:00N 59°20' E 018°05'0 0.0
2017-May-22 09:30N 59°20' E 018°05'0 0.0
2017-May-22 09:00N 59°20' E 018°05'0 0.0
2017-May-22 08:30N 59°20' E 018°05'0 0.0
2017-May-22 08:00N 59°20' E 018°05'0 0.0
2017-May-22 07:30N 59°20' E 018°05'0 0.0
2017-May-22 07:00N 59°20' E 018°05'0 0.0
2017-May-22 06:30N 59°20' E 018°05'0 0.0
2017-May-22 06:00N 59°20' E 018°05'0 0.0
2017-May-22 05:30N 59°20' E 018°05'0 0.0
2017-May-22 05:00N 59°20' E 018°05'0 0.0
2017-May-22 04:30N 59°20' E 018°05'0 0.0
2017-May-22 04:00N 59°20' E 018°05'0 0.0
2017-May-22 03:30N 59°20' E 018°05'0 0.0
2017-May-22 03:00N 59°20' E 018°05'0 0.0
2017-May-22 02:30N 59°20' E 018°05'0 0.0
2017-May-22 02:00N 59°20' E 018°05'0 0.0
2017-May-22 01:30N 59°20' E 018°05'0 0.0
2017-May-22 01:00N 59°20' E 018°05'0 0.0
2017-May-22 00:30N 59°20' E 018°05'0 0.0
2017-May-22 00:00N 59°20' E 018°05'0 0.0
2017-May-21 23:30N 59°20' E 018°05'0 0.0
2017-May-21 23:00N 59°20' E 018°05'0 0.0
2017-May-21 22:30N 59°20' E 018°05'0 0.0
2017-May-21 22:00N 59°20' E 018°05'0 0.0
2017-May-21 21:30N 59°20' E 018°05'0 0.0
2017-May-21 21:00N 59°20' E 018°05'0 0.0
2017-May-21 20:30N 59°20' E 018°05'0 0.0
2017-May-21 20:00N 59°20' E 018°05'0 0.3
2017-May-21 19:30N 59°20' E 018°05'2 4.5
2017-May-21 19:00N 59°19' E 018°09'612.0
2017-May-21 18:31N 59°22' E 018°19'4 7.2
2017-May-21 18:00N 59°25' E 018°21'4 6.7
2017-May-21 17:28N 59°25' E 018°28'16 1.1
2017-May-21 02:57N 59°17' E 018°55'0 0.0
2017-May-20 17:00N 59°17' E 018°55'0 0.0
2017-May-20 08:39N 59°17' E 018°55'1 2.0
2017-May-20 08:11N 59°18' E 018°55'7 0.5
2017-May-19 18:06N 59°22' E 018°44'2 6.3
2017-May-19 17:49N 59°23' E 018°46'2 6.7
2017-May-19 17:30N 59°23' E 018°50'4 9.0
2017-May-19 17:00N 59°26' E 018°56'4 6.7
2017-May-19 16:21N 59°23' E 018°51'2 6.5
2017-May-19 15:59N 59°24' E 018°47'1 1.9
2017-May-19 15:15N 59°26' E 018°48'416.7
2017-May-19 15:00N 59°27' E 018°56'14 5.5
2017-May-19 12:29N 59°26' E 018°28'4 8.8
2017-May-19 12:00N 59°24' E 018°21'5 9.2
2017-May-19 11:30N 59°21' E 018°15'510.6
2017-May-19 11:00N 59°20' E 018°05'0 0.1
2017-May-19 10:30N 59°20' E 018°05'0 0.0
2017-May-19 10:00N 59°20' E 018°05'0 0.0
2017-May-19 09:30N 59°20' E 018°05'0 0.7
2017-May-19 09:01N 59°19' E 018°05'510.4
2017-May-19 08:30N 59°21' E 018°14'5 8.7
2017-May-19 07:59N 59°24' E 018°21'3 6.3
2017-May-19 07:30N 59°27' E 018°23'3 5.3
2017-May-19 06:57N 59°28' E 018°29'2 3.3
2017-May-19 06:29N 59°26' E 018°27'6 5.8
2017-May-19 05:26N 59°26' E 018°39'5 6.1
2017-May-19 04:37N 59°28' E 018°48'110.5
2017-May-19 04:31N 59°29' E 018°50'1 2.4
2017-May-19 04:01N 59°30' E 018°51'0 0.0
2017-May-19 03:29N 59°30' E 018°51'0 0.0
2017-May-19 03:00N 59°30' E 018°51'0 0.0
2017-May-19 02:29N 59°30' E 018°51'0 0.0
2017-May-19 02:00N 59°30' E 018°51'0 0.0
2017-May-19 01:29N 59°30' E 018°51'0 0.0
2017-May-19 01:01N 59°30' E 018°51'0 0.0
2017-May-18 23:37N 59°30' E 018°51'0 0.0
2017-May-18 23:29N 59°30' E 018°51'0 0.0
2017-May-18 22:58N 59°30' E 018°51'0 0.0
2017-May-18 21:43N 59°30' E 018°51'0 0.0
2017-May-18 19:28N 59°30' E 018°51'0 0.0
2017-May-18 18:59N 59°30' E 018°51'0 0.0
2017-May-18 18:27N 59°30' E 018°51'0 0.0
2017-May-18 17:57N 59°30' E 018°51'0 0.0
2017-May-18 17:26N 59°30' E 018°51'0 0.0
2017-May-18 17:00N 59°30' E 018°51'5 7.0
2017-May-18 16:19N 59°27' E 018°44'2 7.1
2017-May-18 16:00N 59°25' E 018°41'3 5.9
2017-May-18 15:30N 59°23' E 018°37'4 8.8
2017-May-18 15:00N 59°25' E 018°30'5 5.4
2017-May-18 14:01N 59°23' E 018°20'4 7.9
2017-May-18 13:31N 59°21' E 018°14'5 9.4
2017-May-18 13:01N 59°20' E 018°05'0 0.0
2017-May-18 12:30N 59°20' E 018°05'0 0.4
2017-May-18 12:00N 59°20' E 018°05'1 1.9
2017-May-18 11:30N 59°19' E 018°06'1 2.1
2017-May-18 11:00N 59°20' E 018°05'0 0.0
2017-May-18 10:30N 59°20' E 018°05'0 0.0
2017-May-18 10:00N 59°20' E 018°05'0 0.0
2017-May-18 09:30N 59°20' E 018°05'0 0.0
2017-May-18 09:00N 59°20' E 018°05'0 0.0
2017-May-18 08:30N 59°20' E 018°05'0 0.0
2017-May-18 08:00N 59°20' E 018°05'0 0.0
2017-May-18 07:30N 59°20' E 018°05'0 0.0
2017-May-18 07:00N 59°20' E 018°05'0 0.0
2017-May-18 06:30N 59°20' E 018°05'0 0.0
2017-May-18 06:00N 59°20' E 018°05'0 0.0
2017-May-18 05:30N 59°20' E 018°05'0 0.0
2017-May-18 05:00N 59°20' E 018°05'0 0.0
2017-May-18 04:30N 59°20' E 018°05'  
Track history (hours):
 
Tides and Currents Weather Stations Pressure Air Temp Water Temp Dewpoint Dewpoint Depression Visibility Wind Speed Wind Dir Waves Ship Positions

Saxaren

Last reported at 2017-May-28 04:26 UTC. Time now 2017-May-28 04:38 UTC.
Position N 59°17' E 018°55'.

Length 37 m; draft 3 m.

Type: Passenger vessel. MMSI: 265512110.

Date/timePositionNaut miles runAvg speedWind from/ knotsBaromVisibWave heightAir tempDewpointWater temp
2017-May-28 04:26N 59°17' E 018°55'0 0.0
2017-May-28 03:55N 59°17' E 018°55'0 0.0
2017-May-27 19:21N 59°17' E 018°55'0 0.0
2017-May-27 18:22N 59°17' E 018°55'0 0.0
2017-May-27 17:56N 59°17' E 018°55'0 0.0
2017-May-27 16:49N 59°17' E 018°55'0 0.0
2017-May-27 14:07N 59°17' E 018°55'7 0.4
2017-May-26 18:05N 59°22' E 018°44'1 2.6
2017-May-26 17:50N 59°23' E 018°44'3 6.9
2017-May-26 17:20N 59°24' E 018°50'410.9
2017-May-26 17:00N 59°27' E 018°55'2 1.3
2017-May-26 15:03N 59°26' E 018°50'118.8
2017-May-26 15:01N 59°27' E 018°52'3 4.3
2017-May-26 14:24N 59°24' E 018°53'12 6.7
2017-May-26 12:35N 59°26' E 018°30'217.7
2017-May-26 12:29N 59°26' E 018°26'4 7.5
2017-May-26 12:00N 59°24' E 018°21'5 9.3
2017-May-26 11:30N 59°21' E 018°15'510.6
2017-May-26 11:00N 59°20' E 018°04'0 0.0
2017-May-26 10:30N 59°20' E 018°04'0 0.0
2017-May-26 10:00N 59°20' E 018°04'0 0.0
2017-May-26 09:31N 59°20' E 018°04'2 3.7
2017-May-26 09:00N 59°19' E 018°08'510.6
2017-May-26 08:31N 59°22' E 018°17'4 7.2
2017-May-26 08:00N 59°25' E 018°21'4 8.8
2017-May-26 07:30N 59°28' E 018°26'1 2.9
2017-May-26 07:00N 59°28' E 018°29'2 3.1
2017-May-26 06:28N 59°26' E 018°26'6 6.3
2017-May-26 05:27N 59°26' E 018°39'3 4.8
2017-May-26 04:50N 59°28' E 018°44'3 9.9
2017-May-26 04:30N 59°29' E 018°50'1 2.2
2017-May-26 03:59N 59°30' E 018°51'0 0.0
2017-May-26 03:30N 59°30' E 018°51'0 0.0
2017-May-26 03:00N 59°30' E 018°51'0 0.0
2017-May-26 02:30N 59°30' E 018°51'0 0.0
2017-May-26 02:01N 59°30' E 018°51'0 0.0
2017-May-26 01:30N 59°30' E 018°51'0 0.0
2017-May-26 01:00N 59°30' E 018°51'0 0.0
2017-May-26 00:26N 59°30' E 018°51'0 0.0
2017-May-25 23:59N 59°30' E 018°51'0 0.0
2017-May-25 23:31N 59°30' E 018°51'0 0.0
2017-May-25 23:00N 59°30' E 018°51'0 0.0
2017-May-25 22:31N 59°30' E 018°51'0 0.0
2017-May-25 22:00N 59°30' E 018°51'0 0.0
2017-May-25 21:30N 59°30' E 018°51'0 0.0
2017-May-25 20:57N 59°30' E 018°51'0 0.0
2017-May-25 19:46N 59°30' E 018°51'1 2.5
2017-May-25 19:30N 59°30' E 018°50'4 6.9
2017-May-25 18:59N 59°27' E 018°44'8 4.3
2017-May-25 17:02N 59°25' E 018°28'0 1.8
2017-May-25 17:00N 59°25' E 018°28'4 7.6
2017-May-25 16:30N 59°24' E 018°21'1 2.0
2017-May-25 16:00N 59°25' E 018°21'4 8.7
2017-May-25 15:31N 59°27' E 018°29'6 3.9
2017-May-25 13:53N 59°25' E 018°41'3 1.2
2017-May-25 10:52N 59°27' E 018°46'512.9
2017-May-25 10:31N 59°27' E 018°55'0 0.3
2017-May-25 10:01N 59°27' E 018°55'0 0.0
2017-May-25 09:30N 59°27' E 018°55'0 0.0
2017-May-25 09:00N 59°27' E 018°55'0 0.0
2017-May-25 08:30N 59°27' E 018°55'0 0.0
2017-May-25 08:00N 59°27' E 018°55'0 0.0
2017-May-25 07:30N 59°27' E 018°55'0 0.0
2017-May-25 07:00N 59°27' E 018°55'0 0.0
2017-May-25 06:30N 59°27' E 018°55'0 0.0
2017-May-25 06:00N 59°27' E 018°55'0 0.0
2017-May-25 05:31N 59°27' E 018°55'0 0.0
2017-May-25 05:00N 59°27' E 018°55'0 0.0
2017-May-25 04:28N 59°27' E 018°55'0 0.0
2017-May-25 03:59N 59°27' E 018°55'0 0.0
2017-May-25 03:30N 59°27' E 018°55'0 0.0
2017-May-25 02:54N 59°27' E 018°55'0 0.0
2017-May-25 02:29N 59°27' E 018°55'0 0.0
2017-May-25 01:55N 59°27' E 018°55'0 0.0
2017-May-25 01:26N 59°27' E 018°55'0 0.0
2017-May-25 00:57N 59°27' E 018°55'0 0.0
2017-May-25 00:30N 59°27' E 018°55'0 0.0
2017-May-24 23:58N 59°27' E 018°55'0 0.0
2017-May-24 23:28N 59°27' E 018°55'0 0.0
2017-May-24 22:59N 59°27' E 018°55'0 0.0
2017-May-24 22:29N 59°27' E 018°55'0 0.0
2017-May-24 21:59N 59°27' E 018°55'0 0.0
2017-May-24 21:28N 59°27' E 018°55'0 0.0
2017-May-24 21:00N 59°27' E 018°55'0 0.0
2017-May-24 20:30N 59°27' E 018°55'0 0.0
2017-May-24 20:00N 59°27' E 018°55'1 1.4
2017-May-24 19:31N 59°27' E 018°54'5 9.5
2017-May-24 19:01N 59°30' E 018°46'5 8.0
2017-May-24 18:26N 59°28' E 018°38'5 7.8
2017-May-24 17:47N 59°26' E 018°29'413.4
2017-May-24 17:30N 59°25' E 018°21'3 6.3
2017-May-24 17:00N 59°23' E 018°18'612.1
2017-May-24 16:30N 59°19' E 018°09'2 4.7
2017-May-24 16:00N 59°20' E 018°05'0 0.2
2017-May-24 15:31N 59°20' E 018°05'510.7
2017-May-24 15:01N 59°21' E 018°15'5 9.2
2017-May-24 14:31N 59°24' E 018°21'17 6.2
2017-May-24 11:46N 59°25' E 018°55'2 6.1
2017-May-24 11:30N 59°27' E 018°55'0 0.9
2017-May-24 11:01N 59°26' E 018°56'4 6.7
2017-May-24 10:23N 59°22' E 018°53'3 6.2
2017-May-24 09:51N 59°24' E 018°47'9 6.1
2017-May-24 08:26N 59°25' E 018°30'510.7
2017-May-24 08:00N 59°25' E 018°21'3 6.4
2017-May-24 07:30N 59°22' E 018°18'610.9
2017-May-24 07:00N 59°19' E 018°08'2 4.3
2017-May-24 06:30N 59°20' E 018°04'0 0.3
2017-May-24 06:00N 59°20' E 018°05'0 0.0
2017-May-24 05:30N 59°20' E 018°05'0 0.0
2017-May-24 05:00N 59°20' E 018°05'0 0.0
2017-May-24 04:30N 59°20' E 018°05'0 0.0
2017-May-24 04:00N 59°20' E 018°05'0 0.0
2017-May-24 03:30N 59°20' E 018°05'0 0.0
2017-May-24 03:00N 59°20' E 018°05'0 0.0
2017-May-24 02:30N 59°20' E 018°05'0 0.0
2017-May-24 02:00N 59°20' E 018°05'0 0.0
2017-May-24 01:30N 59°20' E 018°05'0 0.0
2017-May-24 01:00N 59°20' E 018°05'0 0.0
2017-May-24 00:30N 59°20' E 018°05'0 0.0
2017-May-24 00:00N 59°20' E 018°05'0 0.0
2017-May-23 23:30N 59°20' E 018°05'0 0.0
2017-May-23 23:00N 59°20' E 018°05'0 0.0
2017-May-23 22:30N 59°20' E 018°05'0 0.0
2017-May-23 22:00N 59°20' E 018°05'0 0.0
2017-May-23 21:30N 59°20' E 018°05'0 0.0
2017-May-23 21:00N 59°20' E 018°05'0 0.0
2017-May-23 20:30N 59°20' E 018°05'0 0.0
2017-May-23 20:00N 59°20' E 018°05'0 0.0
2017-May-23 19:30N 59°20' E 018°05'0 0.0
2017-May-23 19:00N 59°20' E 018°05'0 0.0
2017-May-23 18:30N 59°20' E 018°05'0 0.0
2017-May-23 18:00N 59°20' E 018°05'0 0.0
2017-May-23 17:30N 59°20' E 018°05'0 0.0
2017-May-23 17:00N 59°20' E 018°05'0 0.0
2017-May-23 16:30N 59°20' E 018°05'0 0.0
2017-May-23 16:00N 59°20' E 018°05'0 0.0
2017-May-23 15:30N 59°20' E 018°05'0 0.0
2017-May-23 15:00N 59°20' E 018°05'0 0.0
2017-May-23 14:30N 59°20' E 018°05'0 0.0
2017-May-23 13:30N 59°20' E 018°05'0 0.0
2017-May-23 13:00N 59°20' E 018°05'0 0.0
2017-May-23 12:30N 59°20' E 018°05'0 0.0
2017-May-23 12:00N 59°20' E 018°05'0 0.0
2017-May-23 11:30N 59°20' E 018°05'0 0.0
2017-May-23 11:00N 59°20' E 018°05'0 0.0
2017-May-23 10:30N 59°20' E 018°05'0 0.0
2017-May-23 10:00N 59°20' E 018°05'0 0.0
2017-May-23 09:30N 59°20' E 018°05'0 0.0
2017-May-23 09:00N 59°20' E 018°05'0 0.0
2017-May-23 08:30N 59°20' E 018°05'0 0.0
2017-May-23 07:59N 59°20' E 018°05'0 0.0
2017-May-23 07:30N 59°20' E 018°05'0 0.0
2017-May-23 06:59N 59°20' E 018°05'0 0.0
2017-May-23 06:30N 59°20' E 018°05'0 0.0
2017-May-23 06:00N 59°20' E 018°05'0 0.0
2017-May-23 05:30N 59°20' E 018°05'0 0.0
2017-May-23 05:00N 59°20' E 018°05'0 0.0
2017-May-23 04:30N 59°20' E 018°05'0 0.0
2017-May-23 04:00N 59°20' E 018°05'0 0.0
2017-May-23 03:30N 59°20' E 018°05'0 0.0
2017-May-23 03:00N 59°20' E 018°05'0 0.0
2017-May-23 02:30N 59°20' E 018°05'0 0.0
2017-May-23 02:00N 59°20' E 018°05'0 0.0
2017-May-23 01:30N 59°20' E 018°05'0 0.0
2017-May-23 01:00N 59°20' E 018°05'0 0.0
2017-May-23 00:30N 59°20' E 018°05'0 0.0
2017-May-23 00:00N 59°20' E 018°05'0 0.0
2017-May-22 23:30N 59°20' E 018°05'0 0.0
2017-May-22 23:00N 59°20' E 018°05'0 0.0
2017-May-22 22:30N 59°20' E 018°05'0 0.0
2017-May-22 22:00N 59°20' E 018°05'0 0.0
2017-May-22 21:30N 59°20' E 018°05'0 0.0
2017-May-22 21:00N 59°20' E 018°05'0 0.0
2017-May-22 20:30N 59°20' E 018°05'0 0.0
2017-May-22 20:00N 59°20' E 018°05'0 0.0
2017-May-22 19:30N 59°20' E 018°05'0 0.0
2017-May-22 19:00N 59°20' E 018°05'0 0.0
2017-May-22 18:30N 59°20' E 018°05'0 0.0
2017-May-22 18:00N 59°20' E 018°05'0 0.0
2017-May-22 17:30N 59°20' E 018°05'0 0.0
2017-May-22 17:00N 59°20' E 018°05'0 0.0
2017-May-22 16:30N 59°20' E 018°05'0 0.0
2017-May-22 16:00N 59°20' E 018°05'0 0.0
2017-May-22 15:30N 59°20' E 018°05'0 0.0
2017-May-22 15:00N 59°20' E 018°05'0 0.0
2017-May-22 14:00N 59°20' E 018°05'0 0.0
2017-May-22 13:30N 59°20' E 018°05'0 0.0
2017-May-22 13:00N 59°20' E 018°05'0 0.0
2017-May-22 12:30N 59°20' E 018°05'0 0.0
2017-May-22 12:00N 59°20' E 018°05'0 0.0
2017-May-22 11:30N 59°20' E 018°05'0 0.0
2017-May-22 11:00N 59°20' E 018°05'0 0.0
2017-May-22 10:30N 59°20' E 018°05'0 0.0
2017-May-22 10:00N 59°20' E 018°05'0 0.0
2017-May-22 09:30N 59°20' E 018°05'0 0.0
2017-May-22 09:00N 59°20' E 018°05'0 0.0
2017-May-22 08:30N 59°20' E 018°05'0 0.0
2017-May-22 08:00N 59°20' E 018°05'0 0.0
2017-May-22 07:30N 59°20' E 018°05'0 0.0
2017-May-22 07:00N 59°20' E 018°05'0 0.0
2017-May-22 06:30N 59°20' E 018°05'0 0.0
2017-May-22 06:00N 59°20' E 018°05'0 0.0
2017-May-22 05:30N 59°20' E 018°05'0 0.0
2017-May-22 05:00N 59°20' E 018°05'0 0.0
2017-May-22 04:30N 59°20' E 018°05'0 0.0
2017-May-22 04:00N 59°20' E 018°05'0 0.0
2017-May-22 03:30N 59°20' E 018°05'0 0.0
2017-May-22 03:00N 59°20' E 018°05'0 0.0
2017-May-22 02:30N 59°20' E 018°05'0 0.0
2017-May-22 02:00N 59°20' E 018°05'0 0.0
2017-May-22 01:30N 59°20' E 018°05'0 0.0
2017-May-22 01:00N 59°20' E 018°05'0 0.0
2017-May-22 00:30N 59°20' E 018°05'0 0.0
2017-May-22 00:00N 59°20' E 018°05'0 0.0
2017-May-21 23:30N 59°20' E 018°05'0 0.0
2017-May-21 23:00N 59°20' E 018°05'0 0.0
2017-May-21 22:30N 59°20' E 018°05'0 0.0
2017-May-21 22:00N 59°20' E 018°05'0 0.0
2017-May-21 21:30N 59°20' E 018°05'0 0.0
2017-May-21 21:00N 59°20' E 018°05'0 0.0
2017-May-21 20:30N 59°20' E 018°05'0 0.0
2017-May-21 20:00N 59°20' E 018°05'0 0.3
2017-May-21 19:30N 59°20' E 018°05'2 4.5
2017-May-21 19:00N 59°19' E 018°09'612.0
2017-May-21 18:31N 59°22' E 018°19'4 7.2
2017-May-21 18:00N 59°25' E 018°21'4 6.7
2017-May-21 17:28N 59°25' E 018°28'16 1.1
2017-May-21 02:57N 59°17' E 018°55'0 0.0
2017-May-20 17:00N 59°17' E 018°55'0 0.0
2017-May-20 08:39N 59°17' E 018°55'1 2.0
2017-May-20 08:11N 59°18' E 018°55'7 0.5
2017-May-19 18:06N 59°22' E 018°44'2 6.3
2017-May-19 17:49N 59°23' E 018°46'2 6.7
2017-May-19 17:30N 59°23' E 018°50'4 9.0
2017-May-19 17:00N 59°26' E 018°56'4 6.7
2017-May-19 16:21N 59°23' E 018°51'2 6.5
2017-May-19 15:59N 59°24' E 018°47'1 1.9
2017-May-19 15:15N 59°26' E 018°48'416.7
2017-May-19 15:00N 59°27' E 018°56'14 5.5
2017-May-19 12:29N 59°26' E 018°28'4 8.8
2017-May-19 12:00N 59°24' E 018°21'5 9.2
2017-May-19 11:30N 59°21' E 018°15'510.6
2017-May-19 11:00N 59°20' E 018°05'0 0.1
2017-May-19 10:30N 59°20' E 018°05'0 0.0
2017-May-19 10:00N 59°20' E 018°05'0 0.0
2017-May-19 09:30N 59°20' E 018°05'0 0.7
2017-May-19 09:01N 59°19' E 018°05'510.4
2017-May-19 08:30N 59°21' E 018°14'5 8.7
2017-May-19 07:59N 59°24' E 018°21'3 6.3
2017-May-19 07:30N 59°27' E 018°23'3 5.3
2017-May-19 06:57N 59°28' E 018°29'2 3.3
2017-May-19 06:29N 59°26' E 018°27'6 5.8
2017-May-19 05:26N 59°26' E 018°39'5 6.1
2017-May-19 04:37N 59°28' E 018°48'110.5
2017-May-19 04:31N 59°29' E 018°50'1 2.4
2017-May-19 04:01N 59°30' E 018°51'0 0.0
2017-May-19 03:29N 59°30' E 018°51'0 0.0
2017-May-19 03:00N 59°30' E 018°51'0 0.0
2017-May-19 02:29N 59°30' E 018°51'0 0.0
2017-May-19 02:00N 59°30' E 018°51'0 0.0
2017-May-19 01:29N 59°30' E 018°51'0 0.0
2017-May-19 01:01N 59°30' E 018°51'0 0.0
2017-May-18 23:37N 59°30' E 018°51'0 0.0
2017-May-18 23:29N 59°30' E 018°51'0 0.0
2017-May-18 22:58N 59°30' E 018°51'0 0.0
2017-May-18 21:43N 59°30' E 018°51'0 0.0
2017-May-18 19:28N 59°30' E 018°51'0 0.0
2017-May-18 18:59N 59°30' E 018°51'0 0.0
2017-May-18 18:27N 59°30' E 018°51'0 0.0
2017-May-18 17:57N 59°30' E 018°51'0 0.0
2017-May-18 17:26N 59°30' E 018°51'0 0.0
2017-May-18 17:00N 59°30' E 018°51'5 7.0
2017-May-18 16:19N 59°27' E 018°44'2 7.1
2017-May-18 16:00N 59°25' E 018°41'3 5.9
2017-May-18 15:30N 59°23' E 018°37'4 8.8
2017-May-18 15:00N 59°25' E 018°30'5 5.4
2017-May-18 14:01N 59°23' E 018°20'4 7.9
2017-May-18 13:31N 59°21' E 018°14'5 9.4
2017-May-18 13:01N 59°20' E 018°05'0 0.0
2017-May-18 12:30N 59°20' E 018°05'0 0.4
2017-May-18 12:00N 59°20' E 018°05'1 1.9
2017-May-18 11:30N 59°19' E 018°06'1 2.1
2017-May-18 11:00N 59°20' E 018°05'0 0.0
2017-May-18 10:30N 59°20' E 018°05'0 0.0
2017-May-18 10:00N 59°20' E 018°05'0 0.0
2017-May-18 09:30N 59°20' E 018°05'0 0.0
2017-May-18 09:00N 59°20' E 018°05'0 0.0
2017-May-18 08:30N 59°20' E 018°05'0 0.0
2017-May-18 08:00N 59°20' E 018°05'0 0.0
2017-May-18 07:30N 59°20' E 018°05'0 0.0
2017-May-18 07:00N 59°20' E 018°05'0 0.0
2017-May-18 06:30N 59°20' E 018°05'0 0.0
2017-May-18 06:00N 59°20' E 018°05'0 0.0
2017-May-18 05:30N 59°20' E 018°05'0 0.0
2017-May-18 05:00N 59°20' E 018°05'0 0.0
2017-May-18 04:30N 59°20' E 018°05'  

Dump ship's entire track history